sensor_id;sensor_type;location;lat;lon;timestamp;P1;durP1;ratioP1;P2;durP2;ratioP2
5277;SDS011;2662;51.194;6.614;2022-08-19T00:01:13;15.07;;;11.40;;
5277;SDS011;2662;51.194;6.614;2022-08-19T00:03:40;15.43;;;12.00;;
5277;SDS011;2662;51.194;6.614;2022-08-19T00:06:07;16.87;;;12.60;;
5277;SDS011;2662;51.194;6.614;2022-08-19T00:08:34;18.33;;;12.47;;
5277;SDS011;2662;51.194;6.614;2022-08-19T00:11:01;16.53;;;12.03;;
5277;SDS011;2662;51.194;6.614;2022-08-19T00:13:28;15.30;;;11.77;;
5277;SDS011;2662;51.194;6.614;2022-08-19T00:15:56;18.27;;;13.20;;
5277;SDS011;2662;51.194;6.614;2022-08-19T00:18:25;17.87;;;13.40;;
5277;SDS011;2662;51.194;6.614;2022-08-19T00:20:53;22.93;;;13.67;;
5277;SDS011;2662;51.194;6.614;2022-08-19T00:23:20;20.17;;;13.23;;
5277;SDS011;2662;51.194;6.614;2022-08-19T00:25:47;19.77;;;13.03;;
5277;SDS011;2662;51.194;6.614;2022-08-19T00:28:13;22.27;;;12.33;;
5277;SDS011;2662;51.194;6.614;2022-08-19T00:30:40;17.67;;;13.43;;
5277;SDS011;2662;51.194;6.614;2022-08-19T00:33:08;19.43;;;13.50;;
5277;SDS011;2662;51.194;6.614;2022-08-19T00:35:35;17.73;;;13.50;;
5277;SDS011;2662;51.194;6.614;2022-08-19T00:38:03;20.07;;;14.70;;
5277;SDS011;2662;51.194;6.614;2022-08-19T00:40:31;18.17;;;13.67;;
5277;SDS011;2662;51.194;6.614;2022-08-19T00:42:59;19.37;;;14.47;;
5277;SDS011;2662;51.194;6.614;2022-08-19T00:45:26;15.80;;;13.23;;
5277;SDS011;2662;51.194;6.614;2022-08-19T00:47:55;16.10;;;13.60;;
5277;SDS011;2662;51.194;6.614;2022-08-19T00:50:23;16.50;;;13.00;;
5277;SDS011;2662;51.194;6.614;2022-08-19T00:52:50;19.10;;;14.47;;
5277;SDS011;2662;51.194;6.614;2022-08-19T00:55:19;22.23;;;13.17;;
5277;SDS011;2662;51.194;6.614;2022-08-19T00:57:50;17.20;;;13.83;;
5277;SDS011;2662;51.194;6.614;2022-08-19T01:00:24;18.57;;;13.70;;
5277;SDS011;2662;51.194;6.614;2022-08-19T01:02:53;20.33;;;13.70;;
5277;SDS011;2662;51.194;6.614;2022-08-19T01:05:21;16.97;;;13.47;;
5277;SDS011;2662;51.194;6.614;2022-08-19T01:07:52;17.17;;;13.53;;
5277;SDS011;2662;51.194;6.614;2022-08-19T01:10:20;19.33;;;13.00;;
5277;SDS011;2662;51.194;6.614;2022-08-19T01:12:51;27.40;;;15.30;;
5277;SDS011;2662;51.194;6.614;2022-08-19T01:15:21;19.03;;;14.10;;
5277;SDS011;2662;51.194;6.614;2022-08-19T01:17:51;22.17;;;14.90;;
5277;SDS011;2662;51.194;6.614;2022-08-19T01:20:21;19.97;;;13.90;;
5277;SDS011;2662;51.194;6.614;2022-08-19T01:22:52;16.77;;;12.27;;
5277;SDS011;2662;51.194;6.614;2022-08-19T01:25:22;19.83;;;13.53;;
5277;SDS011;2662;51.194;6.614;2022-08-19T01:27:53;18.43;;;13.37;;
5277;SDS011;2662;51.194;6.614;2022-08-19T01:30:22;20.63;;;13.70;;
5277;SDS011;2662;51.194;6.614;2022-08-19T01:32:50;20.80;;;13.67;;
5277;SDS011;2662;51.194;6.614;2022-08-19T01:35:17;25.93;;;13.80;;
5277;SDS011;2662;51.194;6.614;2022-08-19T01:37:45;19.70;;;13.70;;
5277;SDS011;2662;51.194;6.614;2022-08-19T01:40:16;23.50;;;14.80;;
5277;SDS011;2662;51.194;6.614;2022-08-19T01:42:45;24.67;;;15.07;;
5277;SDS011;2662;51.194;6.614;2022-08-19T01:45:12;20.33;;;14.50;;
5277;SDS011;2662;51.194;6.614;2022-08-19T01:47:39;18.80;;;14.67;;
5277;SDS011;2662;51.194;6.614;2022-08-19T01:50:07;20.60;;;14.50;;
5277;SDS011;2662;51.194;6.614;2022-08-19T01:52:35;22.40;;;14.63;;
5277;SDS011;2662;51.194;6.614;2022-08-19T01:55:03;22.93;;;14.07;;
5277;SDS011;2662;51.194;6.614;2022-08-19T01:57:32;25.37;;;14.13;;
5277;SDS011;2662;51.194;6.614;2022-08-19T01:59:59;22.77;;;15.40;;
5277;SDS011;2662;51.194;6.614;2022-08-19T02:02:27;21.50;;;14.50;;
5277;SDS011;2662;51.194;6.614;2022-08-19T02:04:54;20.90;;;15.50;;
5277;SDS011;2662;51.194;6.614;2022-08-19T02:07:21;25.00;;;16.10;;
5277;SDS011;2662;51.194;6.614;2022-08-19T02:09:48;22.63;;;16.40;;
5277;SDS011;2662;51.194;6.614;2022-08-19T02:12:14;21.07;;;16.10;;
5277;SDS011;2662;51.194;6.614;2022-08-19T02:14:43;24.47;;;16.80;;
5277;SDS011;2662;51.194;6.614;2022-08-19T02:17:10;21.70;;;16.20;;
5277;SDS011;2662;51.194;6.614;2022-08-19T02:19:37;27.53;;;16.93;;
5277;SDS011;2662;51.194;6.614;2022-08-19T02:22:03;27.40;;;19.50;;
5277;SDS011;2662;51.194;6.614;2022-08-19T02:24:31;27.47;;;19.50;;
5277;SDS011;2662;51.194;6.614;2022-08-19T02:26:57;27.17;;;19.70;;
5277;SDS011;2662;51.194;6.614;2022-08-19T02:29:24;29.70;;;21.33;;
5277;SDS011;2662;51.194;6.614;2022-08-19T02:31:52;33.90;;;20.27;;
5277;SDS011;2662;51.194;6.614;2022-08-19T02:34:19;28.10;;;20.40;;
5277;SDS011;2662;51.194;6.614;2022-08-19T02:36:46;33.53;;;20.00;;
5277;SDS011;2662;51.194;6.614;2022-08-19T02:39:13;30.83;;;21.00;;
5277;SDS011;2662;51.194;6.614;2022-08-19T02:41:38;28.50;;;20.33;;
5277;SDS011;2662;51.194;6.614;2022-08-19T02:44:05;30.77;;;21.70;;
5277;SDS011;2662;51.194;6.614;2022-08-19T02:46:32;41.03;;;21.00;;
5277;SDS011;2662;51.194;6.614;2022-08-19T02:49:03;28.20;;;20.13;;
5277;SDS011;2662;51.194;6.614;2022-08-19T02:51:31;32.73;;;20.53;;
5277;SDS011;2662;51.194;6.614;2022-08-19T02:53:59;30.43;;;20.70;;
5277;SDS011;2662;51.194;6.614;2022-08-19T02:56:26;26.20;;;20.37;;
5277;SDS011;2662;51.194;6.614;2022-08-19T02:58:54;33.40;;;21.77;;
5277;SDS011;2662;51.194;6.614;2022-08-19T03:01:21;30.20;;;20.40;;
5277;SDS011;2662;51.194;6.614;2022-08-19T03:03:49;28.30;;;20.20;;
5277;SDS011;2662;51.194;6.614;2022-08-19T03:06:18;30.43;;;21.10;;
5277;SDS011;2662;51.194;6.614;2022-08-19T03:08:46;29.10;;;20.27;;
5277;SDS011;2662;51.194;6.614;2022-08-19T03:11:15;35.03;;;21.57;;
5277;SDS011;2662;51.194;6.614;2022-08-19T03:13:44;29.30;;;20.43;;
5277;SDS011;2662;51.194;6.614;2022-08-19T03:16:11;29.10;;;20.40;;
5277;SDS011;2662;51.194;6.614;2022-08-19T03:18:38;29.13;;;20.20;;
5277;SDS011;2662;51.194;6.614;2022-08-19T03:21:05;32.80;;;21.70;;
5277;SDS011;2662;51.194;6.614;2022-08-19T03:23:34;33.00;;;23.37;;
5277;SDS011;2662;51.194;6.614;2022-08-19T03:26:03;34.43;;;23.30;;
5277;SDS011;2662;51.194;6.614;2022-08-19T03:28:31;34.10;;;22.77;;
5277;SDS011;2662;51.194;6.614;2022-08-19T03:31:00;36.57;;;23.67;;
5277;SDS011;2662;51.194;6.614;2022-08-19T03:33:29;42.73;;;26.53;;
5277;SDS011;2662;51.194;6.614;2022-08-19T03:36:01;38.27;;;26.83;;
5277;SDS011;2662;51.194;6.614;2022-08-19T03:38:30;43.50;;;26.90;;
5277;SDS011;2662;51.194;6.614;2022-08-19T03:40:58;39.77;;;26.10;;
5277;SDS011;2662;51.194;6.614;2022-08-19T03:43:31;44.23;;;27.43;;
5277;SDS011;2662;51.194;6.614;2022-08-19T03:45:59;47.80;;;29.57;;
5277;SDS011;2662;51.194;6.614;2022-08-19T03:48:27;45.40;;;29.20;;
5277;SDS011;2662;51.194;6.614;2022-08-19T03:50:55;43.10;;;30.17;;
5277;SDS011;2662;51.194;6.614;2022-08-19T03:53:23;50.23;;;32.13;;
5277;SDS011;2662;51.194;6.614;2022-08-19T03:55:51;47.17;;;30.67;;
5277;SDS011;2662;51.194;6.614;2022-08-19T03:58:19;52.60;;;31.60;;
5277;SDS011;2662;51.194;6.614;2022-08-19T04:00:46;50.27;;;31.73;;
5277;SDS011;2662;51.194;6.614;2022-08-19T04:03:13;52.33;;;33.07;;
5277;SDS011;2662;51.194;6.614;2022-08-19T04:05:40;58.57;;;33.40;;
5277;SDS011;2662;51.194;6.614;2022-08-19T04:08:06;51.43;;;33.37;;
5277;SDS011;2662;51.194;6.614;2022-08-19T04:10:35;55.73;;;32.90;;
5277;SDS011;2662;51.194;6.614;2022-08-19T04:13:03;51.30;;;31.70;;
5277;SDS011;2662;51.194;6.614;2022-08-19T04:15:33;52.67;;;32.40;;
5277;SDS011;2662;51.194;6.614;2022-08-19T04:18:06;53.27;;;31.83;;
5277;SDS011;2662;51.194;6.614;2022-08-19T04:20:37;49.27;;;31.17;;
5277;SDS011;2662;51.194;6.614;2022-08-19T04:23:06;49.37;;;29.40;;
5277;SDS011;2662;51.194;6.614;2022-08-19T04:25:35;44.13;;;29.47;;
5277;SDS011;2662;51.194;6.614;2022-08-19T04:28:03;45.70;;;28.93;;
5277;SDS011;2662;51.194;6.614;2022-08-19T04:30:30;49.30;;;30.43;;
5277;SDS011;2662;51.194;6.614;2022-08-19T04:32:58;44.93;;;29.40;;
5277;SDS011;2662;51.194;6.614;2022-08-19T04:35:25;52.90;;;28.70;;
5277;SDS011;2662;51.194;6.614;2022-08-19T04:37:52;47.67;;;30.20;;
5277;SDS011;2662;51.194;6.614;2022-08-19T04:40:19;43.87;;;30.37;;
5277;SDS011;2662;51.194;6.614;2022-08-19T04:43:03;49.90;;;29.10;;
5277;SDS011;2662;51.194;6.614;2022-08-19T04:45:30;52.10;;;30.20;;
5277;SDS011;2662;51.194;6.614;2022-08-19T04:47:56;44.60;;;28.77;;
5277;SDS011;2662;51.194;6.614;2022-08-19T04:50:26;42.70;;;29.00;;
5277;SDS011;2662;51.194;6.614;2022-08-19T04:52:53;45.00;;;28.77;;
5277;SDS011;2662;51.194;6.614;2022-08-19T04:55:21;47.80;;;29.47;;
5277;SDS011;2662;51.194;6.614;2022-08-19T04:57:48;49.37;;;29.43;;
5277;SDS011;2662;51.194;6.614;2022-08-19T05:00:15;59.43;;;32.00;;
5277;SDS011;2662;51.194;6.614;2022-08-19T05:02:42;52.97;;;33.17;;
5277;SDS011;2662;51.194;6.614;2022-08-19T05:05:10;53.17;;;33.47;;
5277;SDS011;2662;51.194;6.614;2022-08-19T05:07:37;54.83;;;35.10;;
5277;SDS011;2662;51.194;6.614;2022-08-19T05:10:06;56.77;;;33.70;;
5277;SDS011;2662;51.194;6.614;2022-08-19T05:12:33;60.70;;;35.83;;
5277;SDS011;2662;51.194;6.614;2022-08-19T05:15:01;51.73;;;35.77;;
5277;SDS011;2662;51.194;6.614;2022-08-19T05:17:29;57.40;;;34.00;;
5277;SDS011;2662;51.194;6.614;2022-08-19T05:19:55;58.50;;;34.50;;
5277;SDS011;2662;51.194;6.614;2022-08-19T05:22:42;59.03;;;34.00;;
5277;SDS011;2662;51.194;6.614;2022-08-19T05:25:12;52.87;;;34.03;;
5277;SDS011;2662;51.194;6.614;2022-08-19T05:27:41;46.73;;;30.83;;
5277;SDS011;2662;51.194;6.614;2022-08-19T05:30:08;45.27;;;31.50;;
5277;SDS011;2662;51.194;6.614;2022-08-19T05:32:36;44.40;;;28.90;;
5277;SDS011;2662;51.194;6.614;2022-08-19T05:35:03;44.10;;;29.10;;
5277;SDS011;2662;51.194;6.614;2022-08-19T05:37:31;45.30;;;31.53;;
5277;SDS011;2662;51.194;6.614;2022-08-19T05:40:00;50.70;;;32.50;;
5277;SDS011;2662;51.194;6.614;2022-08-19T05:42:28;49.30;;;30.77;;
5277;SDS011;2662;51.194;6.614;2022-08-19T05:44:55;49.73;;;31.43;;
5277;SDS011;2662;51.194;6.614;2022-08-19T05:47:22;48.20;;;31.80;;
5277;SDS011;2662;51.194;6.614;2022-08-19T05:49:49;52.70;;;31.70;;
5277;SDS011;2662;51.194;6.614;2022-08-19T05:52:15;52.60;;;33.10;;
5277;SDS011;2662;51.194;6.614;2022-08-19T05:54:43;48.13;;;32.00;;
5277;SDS011;2662;51.194;6.614;2022-08-19T05:57:14;44.07;;;30.60;;
5277;SDS011;2662;51.194;6.614;2022-08-19T05:59:41;52.80;;;31.10;;
5277;SDS011;2662;51.194;6.614;2022-08-19T06:02:10;42.50;;;30.17;;
5277;SDS011;2662;51.194;6.614;2022-08-19T06:04:38;44.30;;;31.13;;
5277;SDS011;2662;51.194;6.614;2022-08-19T06:07:07;49.27;;;31.27;;
5277;SDS011;2662;51.194;6.614;2022-08-19T06:09:34;50.23;;;30.60;;
5277;SDS011;2662;51.194;6.614;2022-08-19T06:12:02;42.10;;;28.90;;
5277;SDS011;2662;51.194;6.614;2022-08-19T06:14:32;43.63;;;29.63;;
5277;SDS011;2662;51.194;6.614;2022-08-19T06:17:00;41.00;;;29.67;;
5277;SDS011;2662;51.194;6.614;2022-08-19T06:19:28;40.90;;;28.43;;
5277;SDS011;2662;51.194;6.614;2022-08-19T06:21:57;41.43;;;28.37;;
5277;SDS011;2662;51.194;6.614;2022-08-19T06:24:26;44.57;;;28.03;;
5277;SDS011;2662;51.194;6.614;2022-08-19T06:26:55;34.83;;;26.63;;
5277;SDS011;2662;51.194;6.614;2022-08-19T06:29:24;34.27;;;26.20;;
5277;SDS011;2662;51.194;6.614;2022-08-19T06:31:54;34.40;;;25.10;;
5277;SDS011;2662;51.194;6.614;2022-08-19T06:34:23;33.33;;;24.63;;
5277;SDS011;2662;51.194;6.614;2022-08-19T06:36:52;38.03;;;25.60;;
5277;SDS011;2662;51.194;6.614;2022-08-19T06:39:20;29.00;;;23.73;;
5277;SDS011;2662;51.194;6.614;2022-08-19T06:41:49;30.73;;;23.57;;
5277;SDS011;2662;51.194;6.614;2022-08-19T06:44:17;30.07;;;21.50;;
5277;SDS011;2662;51.194;6.614;2022-08-19T06:46:45;36.93;;;23.80;;
5277;SDS011;2662;51.194;6.614;2022-08-19T06:49:15;33.80;;;22.13;;
5277;SDS011;2662;51.194;6.614;2022-08-19T06:51:43;31.93;;;24.50;;
5277;SDS011;2662;51.194;6.614;2022-08-19T06:54:12;34.30;;;23.00;;
5277;SDS011;2662;51.194;6.614;2022-08-19T06:56:39;32.90;;;22.90;;
5277;SDS011;2662;51.194;6.614;2022-08-19T06:59:07;28.37;;;20.67;;
5277;SDS011;2662;51.194;6.614;2022-08-19T07:01:35;24.70;;;20.07;;
5277;SDS011;2662;51.194;6.614;2022-08-19T07:04:03;22.57;;;18.30;;
5277;SDS011;2662;51.194;6.614;2022-08-19T07:06:32;28.90;;;19.30;;
5277;SDS011;2662;51.194;6.614;2022-08-19T07:08:59;25.00;;;19.97;;
5277;SDS011;2662;51.194;6.614;2022-08-19T07:11:26;28.27;;;21.30;;
5277;SDS011;2662;51.194;6.614;2022-08-19T07:13:53;27.97;;;22.73;;
5277;SDS011;2662;51.194;6.614;2022-08-19T07:16:20;33.50;;;24.30;;
5277;SDS011;2662;51.194;6.614;2022-08-19T07:18:47;35.87;;;24.83;;
5277;SDS011;2662;51.194;6.614;2022-08-19T07:21:15;36.93;;;27.37;;
5277;SDS011;2662;51.194;6.614;2022-08-19T07:23:45;35.27;;;27.00;;
5277;SDS011;2662;51.194;6.614;2022-08-19T07:26:13;39.00;;;28.47;;
5277;SDS011;2662;51.194;6.614;2022-08-19T07:28:41;41.70;;;30.23;;
5277;SDS011;2662;51.194;6.614;2022-08-19T07:31:10;38.17;;;28.40;;
5277;SDS011;2662;51.194;6.614;2022-08-19T07:33:38;43.80;;;30.90;;
5277;SDS011;2662;51.194;6.614;2022-08-19T07:36:05;50.77;;;30.00;;
5277;SDS011;2662;51.194;6.614;2022-08-19T07:38:36;53.20;;;31.73;;
5277;SDS011;2662;51.194;6.614;2022-08-19T07:41:05;50.63;;;31.83;;
5277;SDS011;2662;51.194;6.614;2022-08-19T07:43:33;60.80;;;35.10;;
5277;SDS011;2662;51.194;6.614;2022-08-19T07:45:59;56.63;;;33.83;;
5277;SDS011;2662;51.194;6.614;2022-08-19T07:48:27;50.83;;;33.83;;
5277;SDS011;2662;51.194;6.614;2022-08-19T07:50:54;53.50;;;32.53;;
5277;SDS011;2662;51.194;6.614;2022-08-19T07:53:24;54.50;;;32.27;;
5277;SDS011;2662;51.194;6.614;2022-08-19T07:55:51;57.13;;;33.60;;
5277;SDS011;2662;51.194;6.614;2022-08-19T07:58:20;49.97;;;32.00;;
5277;SDS011;2662;51.194;6.614;2022-08-19T08:00:49;48.40;;;31.17;;
5277;SDS011;2662;51.194;6.614;2022-08-19T08:03:18;45.00;;;31.50;;
5277;SDS011;2662;51.194;6.614;2022-08-19T08:06:07;71.67;;;31.67;;
5277;SDS011;2662;51.194;6.614;2022-08-19T08:08:51;43.00;;;30.43;;
5277;SDS011;2662;51.194;6.614;2022-08-19T08:11:35;42.53;;;28.80;;
5277;SDS011;2662;51.194;6.614;2022-08-19T08:14:04;39.80;;;28.67;;
5277;SDS011;2662;51.194;6.614;2022-08-19T08:16:33;40.53;;;28.90;;
5277;SDS011;2662;51.194;6.614;2022-08-19T08:19:03;45.10;;;30.10;;
5277;SDS011;2662;51.194;6.614;2022-08-19T08:21:30;47.40;;;29.53;;
5277;SDS011;2662;51.194;6.614;2022-08-19T08:23:58;42.30;;;26.80;;
5277;SDS011;2662;51.194;6.614;2022-08-19T08:26:25;45.80;;;28.30;;
5277;SDS011;2662;51.194;6.614;2022-08-19T08:28:52;42.93;;;28.60;;
5277;SDS011;2662;51.194;6.614;2022-08-19T08:31:20;45.73;;;28.57;;
5277;SDS011;2662;51.194;6.614;2022-08-19T08:33:48;49.47;;;30.30;;
5277;SDS011;2662;51.194;6.614;2022-08-19T08:36:15;49.10;;;27.10;;
5277;SDS011;2662;51.194;6.614;2022-08-19T08:38:42;40.17;;;26.43;;
5277;SDS011;2662;51.194;6.614;2022-08-19T08:41:13;41.93;;;27.37;;
5277;SDS011;2662;51.194;6.614;2022-08-19T08:43:49;37.90;;;24.03;;
5277;SDS011;2662;51.194;6.614;2022-08-19T08:46:19;34.00;;;24.37;;
5277;SDS011;2662;51.194;6.614;2022-08-19T08:48:52;35.87;;;21.73;;
5277;SDS011;2662;51.194;6.614;2022-08-19T08:51:25;22.40;;;17.10;;
5277;SDS011;2662;51.194;6.614;2022-08-19T08:53:58;20.63;;;14.60;;
5277;SDS011;2662;51.194;6.614;2022-08-19T08:56:25;23.80;;;16.93;;
5277;SDS011;2662;51.194;6.614;2022-08-19T08:58:54;27.97;;;17.70;;
5277;SDS011;2662;51.194;6.614;2022-08-19T09:01:26;27.30;;;18.17;;
5277;SDS011;2662;51.194;6.614;2022-08-19T09:03:53;30.37;;;18.80;;
5277;SDS011;2662;51.194;6.614;2022-08-19T09:06:22;26.13;;;18.07;;
5277;SDS011;2662;51.194;6.614;2022-08-19T09:09:04;21.40;;;16.47;;
5277;SDS011;2662;51.194;6.614;2022-08-19T09:11:40;21.23;;;16.23;;
5277;SDS011;2662;51.194;6.614;2022-08-19T09:14:19;22.50;;;16.30;;
5277;SDS011;2662;51.194;6.614;2022-08-19T09:16:59;22.40;;;17.20;;
5277;SDS011;2662;51.194;6.614;2022-08-19T09:19:28;18.30;;;14.80;;
5277;SDS011;2662;51.194;6.614;2022-08-19T09:21:55;20.50;;;12.63;;
5277;SDS011;2662;51.194;6.614;2022-08-19T09:24:23;16.90;;;12.10;;
5277;SDS011;2662;51.194;6.614;2022-08-19T09:26:49;13.13;;;11.80;;
5277;SDS011;2662;51.194;6.614;2022-08-19T09:29:16;15.47;;;12.90;;
5277;SDS011;2662;51.194;6.614;2022-08-19T09:31:43;19.70;;;13.80;;
5277;SDS011;2662;51.194;6.614;2022-08-19T09:34:11;19.60;;;14.40;;
5277;SDS011;2662;51.194;6.614;2022-08-19T09:36:38;18.10;;;13.53;;
5277;SDS011;2662;51.194;6.614;2022-08-19T09:39:05;18.87;;;14.23;;
5277;SDS011;2662;51.194;6.614;2022-08-19T09:41:32;20.77;;;13.03;;
5277;SDS011;2662;51.194;6.614;2022-08-19T09:43:59;22.93;;;12.23;;
5277;SDS011;2662;51.194;6.614;2022-08-19T09:46:27;14.50;;;11.47;;
5277;SDS011;2662;51.194;6.614;2022-08-19T09:48:59;20.93;;;11.97;;
5277;SDS011;2662;51.194;6.614;2022-08-19T09:51:28;18.00;;;12.50;;
5277;SDS011;2662;51.194;6.614;2022-08-19T09:53:58;17.10;;;12.20;;
5277;SDS011;2662;51.194;6.614;2022-08-19T09:56:26;24.07;;;13.60;;
5277;SDS011;2662;51.194;6.614;2022-08-19T09:58:53;21.03;;;12.70;;
5277;SDS011;2662;51.194;6.614;2022-08-19T10:01:21;19.20;;;11.83;;
5277;SDS011;2662;51.194;6.614;2022-08-19T10:03:50;14.03;;;10.83;;
5277;SDS011;2662;51.194;6.614;2022-08-19T10:06:19;12.20;;;9.47;;
5277;SDS011;2662;51.194;6.614;2022-08-19T10:08:47;14.00;;;10.80;;
5277;SDS011;2662;51.194;6.614;2022-08-19T10:11:14;12.47;;;9.80;;
5277;SDS011;2662;51.194;6.614;2022-08-19T10:13:42;16.70;;;10.97;;
5277;SDS011;2662;51.194;6.614;2022-08-19T10:16:12;15.90;;;10.13;;
5277;SDS011;2662;51.194;6.614;2022-08-19T10:18:40;12.70;;;10.40;;
5277;SDS011;2662;51.194;6.614;2022-08-19T10:21:09;11.27;;;9.33;;
5277;SDS011;2662;51.194;6.614;2022-08-19T10:23:38;19.17;;;11.77;;
5277;SDS011;2662;51.194;6.614;2022-08-19T10:26:11;14.03;;;10.63;;
5277;SDS011;2662;51.194;6.614;2022-08-19T10:28:39;17.53;;;9.87;;
5277;SDS011;2662;51.194;6.614;2022-08-19T10:31:07;13.73;;;11.30;;
5277;SDS011;2662;51.194;6.614;2022-08-19T10:33:36;13.90;;;11.27;;
5277;SDS011;2662;51.194;6.614;2022-08-19T10:36:04;17.70;;;11.27;;
5277;SDS011;2662;51.194;6.614;2022-08-19T10:38:34;20.90;;;11.37;;
5277;SDS011;2662;51.194;6.614;2022-08-19T10:41:08;18.97;;;11.90;;
5277;SDS011;2662;51.194;6.614;2022-08-19T10:43:38;17.10;;;12.60;;
5277;SDS011;2662;51.194;6.614;2022-08-19T10:46:06;14.57;;;11.73;;
5277;SDS011;2662;51.194;6.614;2022-08-19T10:48:33;16.40;;;11.57;;
5277;SDS011;2662;51.194;6.614;2022-08-19T10:51:01;17.77;;;11.67;;
5277;SDS011;2662;51.194;6.614;2022-08-19T10:53:45;21.53;;;12.40;;
5277;SDS011;2662;51.194;6.614;2022-08-19T10:56:14;16.67;;;10.60;;
5277;SDS011;2662;51.194;6.614;2022-08-19T10:58:58;14.10;;;10.30;;
5277;SDS011;2662;51.194;6.614;2022-08-19T11:01:26;17.43;;;10.53;;
5277;SDS011;2662;51.194;6.614;2022-08-19T11:03:54;15.47;;;10.20;;
5277;SDS011;2662;51.194;6.614;2022-08-19T11:06:22;13.80;;;9.63;;
5277;SDS011;2662;51.194;6.614;2022-08-19T11:08:51;15.50;;;9.87;;
5277;SDS011;2662;51.194;6.614;2022-08-19T11:11:19;12.13;;;9.27;;
5277;SDS011;2662;51.194;6.614;2022-08-19T11:13:46;13.67;;;10.53;;
5277;SDS011;2662;51.194;6.614;2022-08-19T11:16:15;15.77;;;10.30;;
5277;SDS011;2662;51.194;6.614;2022-08-19T11:18:44;17.10;;;10.90;;
5277;SDS011;2662;51.194;6.614;2022-08-19T11:21:13;15.53;;;9.37;;
5277;SDS011;2662;51.194;6.614;2022-08-19T11:23:44;16.50;;;10.60;;
5277;SDS011;2662;51.194;6.614;2022-08-19T11:26:12;16.90;;;9.30;;
5277;SDS011;2662;51.194;6.614;2022-08-19T11:28:41;13.47;;;8.73;;
5277;SDS011;2662;51.194;6.614;2022-08-19T11:31:11;16.23;;;9.60;;
5277;SDS011;2662;51.194;6.614;2022-08-19T11:33:39;11.50;;;8.57;;
5277;SDS011;2662;51.194;6.614;2022-08-19T11:36:07;12.13;;;8.67;;
5277;SDS011;2662;51.194;6.614;2022-08-19T11:38:34;13.90;;;9.20;;
5277;SDS011;2662;51.194;6.614;2022-08-19T11:41:03;12.00;;;9.17;;
5277;SDS011;2662;51.194;6.614;2022-08-19T11:43:32;15.33;;;8.00;;
5277;SDS011;2662;51.194;6.614;2022-08-19T11:46:02;13.60;;;8.97;;
5277;SDS011;2662;51.194;6.614;2022-08-19T11:48:31;13.10;;;8.50;;
5277;SDS011;2662;51.194;6.614;2022-08-19T11:50:58;11.00;;;8.57;;
5277;SDS011;2662;51.194;6.614;2022-08-19T11:53:25;12.03;;;8.43;;
5277;SDS011;2662;51.194;6.614;2022-08-19T11:55:52;15.27;;;8.47;;
5277;SDS011;2662;51.194;6.614;2022-08-19T11:58:21;13.00;;;9.17;;
5277;SDS011;2662;51.194;6.614;2022-08-19T12:00:48;10.77;;;8.03;;
5277;SDS011;2662;51.194;6.614;2022-08-19T12:03:16;19.73;;;7.47;;
5277;SDS011;2662;51.194;6.614;2022-08-19T12:05:43;8.07;;;6.47;;
5277;SDS011;2662;51.194;6.614;2022-08-19T12:08:10;12.23;;;7.20;;
5277;SDS011;2662;51.194;6.614;2022-08-19T12:10:37;13.23;;;5.90;;
5277;SDS011;2662;51.194;6.614;2022-08-19T12:13:05;9.50;;;6.40;;
5277;SDS011;2662;51.194;6.614;2022-08-19T12:15:34;10.20;;;7.50;;
5277;SDS011;2662;51.194;6.614;2022-08-19T12:18:01;7.00;;;6.00;;
5277;SDS011;2662;51.194;6.614;2022-08-19T12:20:30;9.90;;;5.57;;
5277;SDS011;2662;51.194;6.614;2022-08-19T12:22:56;8.97;;;6.23;;
5277;SDS011;2662;51.194;6.614;2022-08-19T12:25:23;7.10;;;5.63;;
5277;SDS011;2662;51.194;6.614;2022-08-19T12:27:50;7.00;;;5.40;;
5277;SDS011;2662;51.194;6.614;2022-08-19T12:30:16;11.20;;;6.73;;
5277;SDS011;2662;51.194;6.614;2022-08-19T12:32:43;10.00;;;6.10;;
5277;SDS011;2662;51.194;6.614;2022-08-19T12:35:10;6.33;;;5.50;;
5277;SDS011;2662;51.194;6.614;2022-08-19T12:37:39;13.60;;;5.50;;
5277;SDS011;2662;51.194;6.614;2022-08-19T12:40:09;10.23;;;5.90;;
5277;SDS011;2662;51.194;6.614;2022-08-19T12:42:37;6.90;;;5.27;;
5277;SDS011;2662;51.194;6.614;2022-08-19T12:45:06;12.13;;;5.93;;
5277;SDS011;2662;51.194;6.614;2022-08-19T12:47:34;12.80;;;6.10;;
5277;SDS011;2662;51.194;6.614;2022-08-19T12:50:01;9.63;;;5.43;;
5277;SDS011;2662;51.194;6.614;2022-08-19T12:52:33;7.30;;;5.30;;
5277;SDS011;2662;51.194;6.614;2022-08-19T12:55:03;7.10;;;4.80;;
5277;SDS011;2662;51.194;6.614;2022-08-19T12:57:32;8.80;;;4.97;;
5277;SDS011;2662;51.194;6.614;2022-08-19T13:00:02;6.37;;;4.60;;
5277;SDS011;2662;51.194;6.614;2022-08-19T13:02:32;5.93;;;4.93;;
5277;SDS011;2662;51.194;6.614;2022-08-19T13:05:00;13.53;;;4.43;;
5277;SDS011;2662;51.194;6.614;2022-08-19T13:07:26;7.27;;;4.50;;
5277;SDS011;2662;51.194;6.614;2022-08-19T13:09:53;6.00;;;5.40;;
5277;SDS011;2662;51.194;6.614;2022-08-19T13:12:21;7.57;;;4.67;;
5277;SDS011;2662;51.194;6.614;2022-08-19T13:14:51;7.13;;;5.13;;
5277;SDS011;2662;51.194;6.614;2022-08-19T13:17:18;10.57;;;4.63;;
5277;SDS011;2662;51.194;6.614;2022-08-19T13:19:45;6.43;;;5.07;;
5277;SDS011;2662;51.194;6.614;2022-08-19T13:22:12;5.73;;;4.77;;
5277;SDS011;2662;51.194;6.614;2022-08-19T13:24:39;6.80;;;5.00;;
5277;SDS011;2662;51.194;6.614;2022-08-19T13:27:06;6.50;;;4.57;;
5277;SDS011;2662;51.194;6.614;2022-08-19T13:29:34;7.77;;;4.50;;
5277;SDS011;2662;51.194;6.614;2022-08-19T13:32:18;7.20;;;4.23;;
5277;SDS011;2662;51.194;6.614;2022-08-19T13:35:02;11.23;;;5.23;;
5277;SDS011;2662;51.194;6.614;2022-08-19T13:37:29;8.13;;;4.43;;
5277;SDS011;2662;51.194;6.614;2022-08-19T13:40:09;4.03;;;3.63;;
5277;SDS011;2662;51.194;6.614;2022-08-19T13:42:40;4.50;;;3.70;;
5277;SDS011;2662;51.194;6.614;2022-08-19T13:45:09;4.33;;;3.70;;
5277;SDS011;2662;51.194;6.614;2022-08-19T13:47:36;4.83;;;4.27;;
5277;SDS011;2662;51.194;6.614;2022-08-19T13:50:09;5.83;;;4.00;;
5277;SDS011;2662;51.194;6.614;2022-08-19T13:52:36;8.40;;;4.37;;
5277;SDS011;2662;51.194;6.614;2022-08-19T13:55:04;6.70;;;3.63;;
5277;SDS011;2662;51.194;6.614;2022-08-19T13:57:31;8.27;;;4.03;;
5277;SDS011;2662;51.194;6.614;2022-08-19T13:59:58;8.63;;;3.80;;
5277;SDS011;2662;51.194;6.614;2022-08-19T14:02:27;4.53;;;3.13;;
5277;SDS011;2662;51.194;6.614;2022-08-19T14:04:54;7.23;;;3.37;;
5277;SDS011;2662;51.194;6.614;2022-08-19T14:07:20;7.43;;;3.70;;
5277;SDS011;2662;51.194;6.614;2022-08-19T14:09:48;7.07;;;3.03;;
5277;SDS011;2662;51.194;6.614;2022-08-19T14:12:17;5.10;;;2.80;;
5277;SDS011;2662;51.194;6.614;2022-08-19T14:14:45;4.33;;;3.40;;
5277;SDS011;2662;51.194;6.614;2022-08-19T14:17:12;4.70;;;3.10;;
5277;SDS011;2662;51.194;6.614;2022-08-19T14:19:40;3.57;;;2.63;;
5277;SDS011;2662;51.194;6.614;2022-08-19T14:22:07;3.83;;;2.70;;
5277;SDS011;2662;51.194;6.614;2022-08-19T14:24:34;3.23;;;2.67;;
5277;SDS011;2662;51.194;6.614;2022-08-19T14:27:03;5.70;;;3.10;;
5277;SDS011;2662;51.194;6.614;2022-08-19T14:29:30;5.47;;;3.43;;
5277;SDS011;2662;51.194;6.614;2022-08-19T14:31:57;11.27;;;3.93;;
5277;SDS011;2662;51.194;6.614;2022-08-19T14:34:25;3.13;;;2.83;;
5277;SDS011;2662;51.194;6.614;2022-08-19T14:36:53;3.60;;;3.07;;
5277;SDS011;2662;51.194;6.614;2022-08-19T14:39:20;6.10;;;2.80;;
5277;SDS011;2662;51.194;6.614;2022-08-19T14:41:46;3.93;;;2.67;;
5277;SDS011;2662;51.194;6.614;2022-08-19T14:44:13;5.83;;;3.23;;
5277;SDS011;2662;51.194;6.614;2022-08-19T14:46:40;3.47;;;2.90;;
5277;SDS011;2662;51.194;6.614;2022-08-19T14:49:07;3.87;;;2.97;;
5277;SDS011;2662;51.194;6.614;2022-08-19T14:51:33;4.83;;;2.97;;
5277;SDS011;2662;51.194;6.614;2022-08-19T14:54:01;8.70;;;3.53;;
5277;SDS011;2662;51.194;6.614;2022-08-19T14:56:29;8.03;;;4.00;;
5277;SDS011;2662;51.194;6.614;2022-08-19T14:58:56;4.63;;;3.77;;
5277;SDS011;2662;51.194;6.614;2022-08-19T15:01:25;5.53;;;3.43;;